sensor_id;sensor_type;location;lat;lon;timestamp;P1;durP1;ratioP1;P2;durP2;ratioP2
50379;SDS011;37474;59.468;18.040;2023-05-20T00:02:28;4.23;;;1.67;;
50379;SDS011;37474;59.468;18.040;2023-05-20T00:04:57;4.28;;;1.33;;
50379;SDS011;37474;59.468;18.040;2023-05-20T00:07:25;5.37;;;1.50;;
50379;SDS011;37474;59.468;18.040;2023-05-20T00:09:53;4.10;;;1.80;;
50379;SDS011;37474;59.468;18.040;2023-05-20T00:12:21;2.47;;;1.43;;
50379;SDS011;37474;59.468;18.040;2023-05-20T00:14:51;3.20;;;1.50;;
50379;SDS011;37474;59.468;18.040;2023-05-20T00:17:21;3.20;;;1.50;;
50379;SDS011;37474;59.468;18.040;2023-05-20T00:19:52;3.63;;;1.40;;
50379;SDS011;37474;59.468;18.040;2023-05-20T00:22:20;2.70;;;1.50;;
50379;SDS011;37474;59.468;18.040;2023-05-20T00:24:48;4.80;;;1.40;;
50379;SDS011;37474;59.468;18.040;2023-05-20T00:27:17;4.23;;;1.53;;
50379;SDS011;37474;59.468;18.040;2023-05-20T00:29:45;6.60;;;1.70;;
50379;SDS011;37474;59.468;18.040;2023-05-20T00:32:13;6.20;;;2.00;;
50379;SDS011;37474;59.468;18.040;2023-05-20T00:34:41;4.77;;;2.10;;
50379;SDS011;37474;59.468;18.040;2023-05-20T00:37:11;5.27;;;1.43;;
50379;SDS011;37474;59.468;18.040;2023-05-20T00:39:39;5.20;;;1.60;;
50379;SDS011;37474;59.468;18.040;2023-05-20T00:42:07;2.90;;;1.77;;
50379;SDS011;37474;59.468;18.040;2023-05-20T00:44:35;5.53;;;1.80;;
50379;SDS011;37474;59.468;18.040;2023-05-20T00:47:04;4.27;;;1.53;;
50379;SDS011;37474;59.468;18.040;2023-05-20T00:49:32;9.07;;;2.00;;
50379;SDS011;37474;59.468;18.040;2023-05-20T00:52:00;6.57;;;2.17;;
50379;SDS011;37474;59.468;18.040;2023-05-20T00:54:29;2.93;;;1.87;;
50379;SDS011;37474;59.468;18.040;2023-05-20T00:56:58;3.38;;;1.60;;
50379;SDS011;37474;59.468;18.040;2023-05-20T00:59:28;5.82;;;1.77;;
50379;SDS011;37474;59.468;18.040;2023-05-20T01:01:56;4.73;;;1.60;;
50379;SDS011;37474;59.468;18.040;2023-05-20T01:04:25;5.17;;;1.80;;
50379;SDS011;37474;59.468;18.040;2023-05-20T01:06:53;3.17;;;1.60;;
50379;SDS011;37474;59.468;18.040;2023-05-20T01:09:23;5.60;;;1.63;;
50379;SDS011;37474;59.468;18.040;2023-05-20T01:11:54;3.23;;;1.90;;
50379;SDS011;37474;59.468;18.040;2023-05-20T01:14:26;6.30;;;1.90;;
50379;SDS011;37474;59.468;18.040;2023-05-20T01:16:58;5.20;;;1.80;;
50379;SDS011;37474;59.468;18.040;2023-05-20T01:19:35;5.67;;;1.70;;
50379;SDS011;37474;59.468;18.040;2023-05-20T01:22:07;4.10;;;1.70;;
50379;SDS011;37474;59.468;18.040;2023-05-20T01:27:08;6.38;;;1.70;;
50379;SDS011;37474;59.468;18.040;2023-05-20T01:29:36;6.90;;;1.87;;
50379;SDS011;37474;59.468;18.040;2023-05-20T01:32:05;4.83;;;1.77;;
50379;SDS011;37474;59.468;18.040;2023-05-20T01:34:37;6.17;;;1.80;;
50379;SDS011;37474;59.468;18.040;2023-05-20T01:37:07;6.35;;;2.40;;
50379;SDS011;37474;59.468;18.040;2023-05-20T01:39:37;2.65;;;1.90;;
50379;SDS011;37474;59.468;18.040;2023-05-20T01:42:08;5.80;;;2.00;;
50379;SDS011;37474;59.468;18.040;2023-05-20T01:44:38;6.20;;;2.22;;
50379;SDS011;37474;59.468;18.040;2023-05-20T01:47:07;4.47;;;1.83;;
50379;SDS011;37474;59.468;18.040;2023-05-20T01:49:35;4.40;;;1.83;;
50379;SDS011;37474;59.468;18.040;2023-05-20T01:52:03;3.50;;;1.83;;
50379;SDS011;37474;59.468;18.040;2023-05-20T01:54:31;5.17;;;1.90;;
50379;SDS011;37474;59.468;18.040;2023-05-20T01:57:04;8.07;;;1.88;;
50379;SDS011;37474;59.468;18.040;2023-05-20T01:59:32;2.83;;;1.65;;
50379;SDS011;37474;59.468;18.040;2023-05-20T02:02:00;3.20;;;1.90;;
50379;SDS011;37474;59.468;18.040;2023-05-20T02:04:28;4.67;;;2.13;;
50379;SDS011;37474;59.468;18.040;2023-05-20T02:06:56;3.20;;;1.60;;
50379;SDS011;37474;59.468;18.040;2023-05-20T02:09:24;4.10;;;1.90;;
50379;SDS011;37474;59.468;18.040;2023-05-20T02:11:52;6.97;;;2.17;;
50379;SDS011;37474;59.468;18.040;2023-05-20T02:14:22;6.07;;;2.27;;
50379;SDS011;37474;59.468;18.040;2023-05-20T02:16:50;6.10;;;2.13;;
50379;SDS011;37474;59.468;18.040;2023-05-20T02:19:18;5.13;;;1.70;;
50379;SDS011;37474;59.468;18.040;2023-05-20T02:21:49;4.83;;;1.70;;
50379;SDS011;37474;59.468;18.040;2023-05-20T02:24:17;3.77;;;1.93;;
50379;SDS011;37474;59.468;18.040;2023-05-20T02:26:46;7.17;;;2.77;;
50379;SDS011;37474;59.468;18.040;2023-05-20T02:29:19;7.25;;;1.60;;
50379;SDS011;37474;59.468;18.040;2023-05-20T02:31:49;4.73;;;1.50;;
50379;SDS011;37474;59.468;18.040;2023-05-20T02:34:19;4.03;;;1.70;;
50379;SDS011;37474;59.468;18.040;2023-05-20T02:36:48;3.10;;;1.70;;
50379;SDS011;37474;59.468;18.040;2023-05-20T02:39:17;3.03;;;1.80;;
50379;SDS011;37474;59.468;18.040;2023-05-20T02:41:47;4.43;;;1.80;;
50379;SDS011;37474;59.468;18.040;2023-05-20T02:44:17;5.27;;;2.07;;
50379;SDS011;37474;59.468;18.040;2023-05-20T02:46:50;4.03;;;2.30;;
50379;SDS011;37474;59.468;18.040;2023-05-20T02:49:18;5.60;;;2.03;;
50379;SDS011;37474;59.468;18.040;2023-05-20T02:51:46;4.23;;;1.70;;
50379;SDS011;37474;59.468;18.040;2023-05-20T02:54:14;5.87;;;1.80;;
50379;SDS011;37474;59.468;18.040;2023-05-20T02:56:42;3.67;;;1.73;;
50379;SDS011;37474;59.468;18.040;2023-05-20T02:59:10;6.33;;;2.00;;
50379;SDS011;37474;59.468;18.040;2023-05-20T03:01:38;5.83;;;1.80;;
50379;SDS011;37474;59.468;18.040;2023-05-20T03:04:08;5.23;;;1.63;;
50379;SDS011;37474;59.468;18.040;2023-05-20T03:06:37;4.75;;;2.13;;
50379;SDS011;37474;59.468;18.040;2023-05-20T03:09:10;8.93;;;2.23;;
50379;SDS011;37474;59.468;18.040;2023-05-20T03:11:38;8.67;;;2.10;;
50379;SDS011;37474;59.468;18.040;2023-05-20T03:14:06;5.20;;;1.87;;
50379;SDS011;37474;59.468;18.040;2023-05-20T03:16:34;4.27;;;1.70;;
50379;SDS011;37474;59.468;18.040;2023-05-20T03:19:03;7.80;;;2.27;;
50379;SDS011;37474;59.468;18.040;2023-05-20T03:21:34;7.17;;;1.90;;
50379;SDS011;37474;59.468;18.040;2023-05-20T03:24:05;4.10;;;1.87;;
50379;SDS011;37474;59.468;18.040;2023-05-20T03:26:36;6.60;;;2.00;;
50379;SDS011;37474;59.468;18.040;2023-05-20T03:29:08;3.17;;;1.60;;
50379;SDS011;37474;59.468;18.040;2023-05-20T03:31:37;8.90;;;2.37;;
50379;SDS011;37474;59.468;18.040;2023-05-20T03:34:06;7.50;;;2.10;;
50379;SDS011;37474;59.468;18.040;2023-05-20T03:36:35;4.53;;;1.87;;
50379;SDS011;37474;59.468;18.040;2023-05-20T03:39:04;3.38;;;1.75;;
50379;SDS011;37474;59.468;18.040;2023-05-20T03:41:32;7.97;;;2.00;;
50379;SDS011;37474;59.468;18.040;2023-05-20T03:44:00;5.17;;;2.13;;
50379;SDS011;37474;59.468;18.040;2023-05-20T03:46:28;5.73;;;2.00;;
50379;SDS011;37474;59.468;18.040;2023-05-20T03:48:58;3.37;;;1.67;;
50379;SDS011;37474;59.468;18.040;2023-05-20T03:51:27;7.57;;;2.03;;
50379;SDS011;37474;59.468;18.040;2023-05-20T03:53:56;5.37;;;1.83;;
50379;SDS011;37474;59.468;18.040;2023-05-20T03:56:24;7.47;;;2.20;;
50379;SDS011;37474;59.468;18.040;2023-05-20T03:58:52;4.97;;;1.90;;
50379;SDS011;37474;59.468;18.040;2023-05-20T04:01:24;7.60;;;1.80;;
50379;SDS011;37474;59.468;18.040;2023-05-20T04:03:52;4.50;;;1.87;;
50379;SDS011;37474;59.468;18.040;2023-05-20T04:06:20;6.67;;;2.00;;
50379;SDS011;37474;59.468;18.040;2023-05-20T04:08:48;4.20;;;1.53;;
50379;SDS011;37474;59.468;18.040;2023-05-20T04:11:19;5.10;;;1.77;;
50379;SDS011;37474;59.468;18.040;2023-05-20T04:13:47;5.80;;;1.58;;
50379;SDS011;37474;59.468;18.040;2023-05-20T04:16:16;3.83;;;1.60;;
50379;SDS011;37474;59.468;18.040;2023-05-20T04:18:47;3.53;;;1.30;;
50379;SDS011;37474;59.468;18.040;2023-05-20T04:21:16;3.20;;;1.80;;
50379;SDS011;37474;59.468;18.040;2023-05-20T04:23:44;5.43;;;1.33;;
50379;SDS011;37474;59.468;18.040;2023-05-20T04:26:12;4.63;;;1.50;;
50379;SDS011;37474;59.468;18.040;2023-05-20T04:28:41;5.57;;;1.57;;
50379;SDS011;37474;59.468;18.040;2023-05-20T04:31:09;5.38;;;1.70;;
50379;SDS011;37474;59.468;18.040;2023-05-20T04:33:38;5.60;;;1.50;;
50379;SDS011;37474;59.468;18.040;2023-05-20T04:36:08;7.37;;;1.20;;
50379;SDS011;37474;59.468;18.040;2023-05-20T04:38:42;5.10;;;1.40;;
50379;SDS011;37474;59.468;18.040;2023-05-20T04:41:10;7.27;;;1.20;;
50379;SDS011;37474;59.468;18.040;2023-05-20T04:43:38;6.83;;;1.33;;
50379;SDS011;37474;59.468;18.040;2023-05-20T04:46:09;4.27;;;1.27;;
50379;SDS011;37474;59.468;18.040;2023-05-20T04:48:37;2.70;;;1.10;;
50379;SDS011;37474;59.468;18.040;2023-05-20T04:51:05;5.07;;;1.30;;
50379;SDS011;37474;59.468;18.040;2023-05-20T04:53:34;3.33;;;1.13;;
50379;SDS011;37474;59.468;18.040;2023-05-20T04:56:02;2.50;;;1.13;;
50379;SDS011;37474;59.468;18.040;2023-05-20T04:58:31;2.90;;;1.13;;
50379;SDS011;37474;59.468;18.040;2023-05-20T05:00:59;4.60;;;0.97;;
50379;SDS011;37474;59.468;18.040;2023-05-20T05:03:29;3.00;;;1.17;;
50379;SDS011;37474;59.468;18.040;2023-05-20T05:06:02;4.07;;;1.23;;
50379;SDS011;37474;59.468;18.040;2023-05-20T05:08:33;5.03;;;1.00;;
50379;SDS011;37474;59.468;18.040;2023-05-20T05:11:03;2.43;;;1.03;;
50379;SDS011;37474;59.468;18.040;2023-05-20T05:13:32;3.37;;;1.10;;
50379;SDS011;37474;59.468;18.040;2023-05-20T05:16:00;3.30;;;1.07;;
50379;SDS011;37474;59.468;18.040;2023-05-20T05:18:30;2.37;;;1.13;;
50379;SDS011;37474;59.468;18.040;2023-05-20T05:21:01;3.70;;;1.00;;
50379;SDS011;37474;59.468;18.040;2023-05-20T05:23:31;3.27;;;0.93;;
50379;SDS011;37474;59.468;18.040;2023-05-20T05:25:59;2.53;;;1.10;;
50379;SDS011;37474;59.468;18.040;2023-05-20T05:28:27;1.43;;;1.13;;
50379;SDS011;37474;59.468;18.040;2023-05-20T05:30:56;2.50;;;1.07;;
50379;SDS011;37474;59.468;18.040;2023-05-20T05:33:24;3.53;;;0.90;;
50379;SDS011;37474;59.468;18.040;2023-05-20T05:35:55;2.65;;;1.05;;
50379;SDS011;37474;59.468;18.040;2023-05-20T05:38:24;3.17;;;0.93;;
50379;SDS011;37474;59.468;18.040;2023-05-20T05:40:53;2.37;;;0.70;;
50379;SDS011;37474;59.468;18.040;2023-05-20T05:43:21;3.97;;;1.00;;
50379;SDS011;37474;59.468;18.040;2023-05-20T05:45:49;5.38;;;1.40;;
50379;SDS011;37474;59.468;18.040;2023-05-20T05:48:20;5.53;;;1.10;;
50379;SDS011;37474;59.468;18.040;2023-05-20T05:50:48;5.35;;;1.30;;
50379;SDS011;37474;59.468;18.040;2023-05-20T05:53:17;3.08;;;1.02;;
50379;SDS011;37474;59.468;18.040;2023-05-20T05:55:45;4.33;;;1.07;;
50379;SDS011;37474;59.468;18.040;2023-05-20T05:58:13;3.20;;;1.00;;
50379;SDS011;37474;59.468;18.040;2023-05-20T06:00:42;2.25;;;0.85;;
50379;SDS011;37474;59.468;18.040;2023-05-20T06:03:10;2.17;;;1.13;;
50379;SDS011;37474;59.468;18.040;2023-05-20T06:05:38;4.07;;;1.17;;
50379;SDS011;37474;59.468;18.040;2023-05-20T06:08:07;3.72;;;1.08;;
50379;SDS011;37474;59.468;18.040;2023-05-20T06:10:36;3.20;;;0.82;;
50379;SDS011;37474;59.468;18.040;2023-05-20T06:13:04;2.53;;;0.90;;
50379;SDS011;37474;59.468;18.040;2023-05-20T06:15:32;2.60;;;1.00;;
50379;SDS011;37474;59.468;18.040;2023-05-20T06:18:02;2.22;;;0.73;;
50379;SDS011;37474;59.468;18.040;2023-05-20T06:20:30;2.05;;;0.90;;
50379;SDS011;37474;59.468;18.040;2023-05-20T06:22:58;4.07;;;0.95;;
50379;SDS011;37474;59.468;18.040;2023-05-20T06:25:26;2.28;;;0.90;;
50379;SDS011;37474;59.468;18.040;2023-05-20T06:27:56;2.42;;;1.00;;
50379;SDS011;37474;59.468;18.040;2023-05-20T06:30:24;4.70;;;0.90;;
50379;SDS011;37474;59.468;18.040;2023-05-20T06:32:52;2.15;;;0.90;;
50379;SDS011;37474;59.468;18.040;2023-05-20T06:35:20;3.90;;;0.90;;
50379;SDS011;37474;59.468;18.040;2023-05-20T06:37:48;2.60;;;1.00;;
50379;SDS011;37474;59.468;18.040;2023-05-20T06:40:16;3.92;;;0.90;;
50379;SDS011;37474;59.468;18.040;2023-05-20T06:42:44;3.35;;;1.00;;
50379;SDS011;37474;59.468;18.040;2023-05-20T06:45:14;2.60;;;1.00;;
50379;SDS011;37474;59.468;18.040;2023-05-20T06:47:42;3.25;;;1.02;;
50379;SDS011;37474;59.468;18.040;2023-05-20T06:50:10;2.17;;;0.75;;
50379;SDS011;37474;59.468;18.040;2023-05-20T06:52:39;2.75;;;1.05;;
50379;SDS011;37474;59.468;18.040;2023-05-20T06:55:08;3.17;;;0.95;;
50379;SDS011;37474;59.468;18.040;2023-05-20T06:57:36;2.03;;;0.90;;
50379;SDS011;37474;59.468;18.040;2023-05-20T07:00:05;3.45;;;1.08;;
50379;SDS011;37474;59.468;18.040;2023-05-20T07:02:35;3.35;;;0.90;;
50379;SDS011;37474;59.468;18.040;2023-05-20T07:05:04;4.28;;;0.90;;
50379;SDS011;37474;59.468;18.040;2023-05-20T07:07:32;3.95;;;0.98;;
50379;SDS011;37474;59.468;18.040;2023-05-20T07:10:01;1.45;;;0.90;;
50379;SDS011;37474;59.468;18.040;2023-05-20T07:12:31;2.03;;;0.98;;
50379;SDS011;37474;59.468;18.040;2023-05-20T07:15:02;3.50;;;0.95;;
50379;SDS011;37474;59.468;18.040;2023-05-20T07:17:30;2.78;;;1.10;;
50379;SDS011;37474;59.468;18.040;2023-05-20T07:20:00;2.00;;;1.08;;
50379;SDS011;37474;59.468;18.040;2023-05-20T07:22:28;4.25;;;1.05;;
50379;SDS011;37474;59.468;18.040;2023-05-20T07:24:56;3.47;;;1.15;;
50379;SDS011;37474;59.468;18.040;2023-05-20T07:27:24;2.08;;;0.90;;
50379;SDS011;37474;59.468;18.040;2023-05-20T07:29:53;3.63;;;1.15;;
50379;SDS011;37474;59.468;18.040;2023-05-20T07:32:23;3.28;;;1.10;;
50379;SDS011;37474;59.468;18.040;2023-05-20T07:34:51;3.00;;;1.02;;
50379;SDS011;37474;59.468;18.040;2023-05-20T07:37:21;2.35;;;1.05;;
50379;SDS011;37474;59.468;18.040;2023-05-20T07:39:49;4.50;;;1.13;;
50379;SDS011;37474;59.468;18.040;2023-05-20T07:42:17;6.30;;;1.13;;
50379;SDS011;37474;59.468;18.040;2023-05-20T07:44:45;3.92;;;0.85;;
50379;SDS011;37474;59.468;18.040;2023-05-20T07:47:13;2.30;;;1.00;;
50379;SDS011;37474;59.468;18.040;2023-05-20T07:49:41;2.45;;;0.90;;
50379;SDS011;37474;59.468;18.040;2023-05-20T07:52:09;3.30;;;0.95;;
50379;SDS011;37474;59.468;18.040;2023-05-20T07:54:39;1.98;;;0.93;;
50379;SDS011;37474;59.468;18.040;2023-05-20T07:57:07;5.45;;;1.00;;
50379;SDS011;37474;59.468;18.040;2023-05-20T07:59:35;2.60;;;0.82;;
50379;SDS011;37474;59.468;18.040;2023-05-20T08:02:03;2.92;;;0.98;;
50379;SDS011;37474;59.468;18.040;2023-05-20T08:04:32;5.65;;;1.20;;
50379;SDS011;37474;59.468;18.040;2023-05-20T08:07:00;2.63;;;0.88;;
50379;SDS011;37474;59.468;18.040;2023-05-20T08:09:29;2.42;;;1.17;;
50379;SDS011;37474;59.468;18.040;2023-05-20T08:11:59;2.30;;;1.00;;
50379;SDS011;37474;59.468;18.040;2023-05-20T08:14:28;4.47;;;1.30;;
50379;SDS011;37474;59.468;18.040;2023-05-20T08:16:56;3.53;;;1.00;;
50379;SDS011;37474;59.468;18.040;2023-05-20T08:19:24;4.25;;;1.35;;
50379;SDS011;37474;59.468;18.040;2023-05-20T08:21:52;2.65;;;1.15;;
50379;SDS011;37474;59.468;18.040;2023-05-20T08:24:20;5.63;;;1.13;;
50379;SDS011;37474;59.468;18.040;2023-05-20T08:26:48;4.32;;;1.10;;
50379;SDS011;37474;59.468;18.040;2023-05-20T08:29:18;4.15;;;1.50;;
50379;SDS011;37474;59.468;18.040;2023-05-20T08:31:46;2.90;;;1.00;;
50379;SDS011;37474;59.468;18.040;2023-05-20T08:34:18;3.90;;;1.20;;
50379;SDS011;37474;59.468;18.040;2023-05-20T08:36:46;3.40;;;1.20;;
50379;SDS011;37474;59.468;18.040;2023-05-20T08:39:14;3.22;;;1.17;;
50379;SDS011;37474;59.468;18.040;2023-05-20T08:41:42;3.95;;;1.15;;
50379;SDS011;37474;59.468;18.040;2023-05-20T08:44:15;3.95;;;1.20;;
50379;SDS011;37474;59.468;18.040;2023-05-20T08:46:46;2.85;;;1.00;;
50379;SDS011;37474;59.468;18.040;2023-05-20T08:49:15;4.57;;;1.20;;
50379;SDS011;37474;59.468;18.040;2023-05-20T08:51:43;3.17;;;1.05;;
50379;SDS011;37474;59.468;18.040;2023-05-20T08:54:12;4.10;;;1.17;;
50379;SDS011;37474;59.468;18.040;2023-05-20T08:59:11;4.07;;;1.17;;
50379;SDS011;37474;59.468;18.040;2023-05-20T09:01:40;4.97;;;1.25;;
50379;SDS011;37474;59.468;18.040;2023-05-20T09:04:10;3.25;;;1.10;;
50379;SDS011;37474;59.468;18.040;2023-05-20T09:06:42;3.70;;;1.17;;
50379;SDS011;37474;59.468;18.040;2023-05-20T09:09:10;2.97;;;0.90;;
50379;SDS011;37474;59.468;18.040;2023-05-20T09:11:39;5.13;;;1.38;;
50379;SDS011;37474;59.468;18.040;2023-05-20T09:14:07;3.85;;;0.80;;
50379;SDS011;37474;59.468;18.040;2023-05-20T09:16:38;3.88;;;1.20;;
50379;SDS011;37474;59.468;18.040;2023-05-20T09:19:06;4.47;;;1.45;;
50379;SDS011;37474;59.468;18.040;2023-05-20T09:21:36;10.30;;;1.55;;
50379;SDS011;37474;59.468;18.040;2023-05-20T09:24:05;4.50;;;1.13;;
50379;SDS011;37474;59.468;18.040;2023-05-20T09:26:34;3.47;;;1.10;;
50379;SDS011;37474;59.468;18.040;2023-05-20T09:29:03;3.83;;;1.60;;
50379;SDS011;37474;59.468;18.040;2023-05-20T09:31:31;2.08;;;0.93;;
50379;SDS011;37474;59.468;18.040;2023-05-20T09:34:01;2.40;;;1.05;;
50379;SDS011;37474;59.468;18.040;2023-05-20T09:36:29;3.08;;;1.08;;
50379;SDS011;37474;59.468;18.040;2023-05-20T09:39:03;5.32;;;1.27;;
50379;SDS011;37474;59.468;18.040;2023-05-20T09:41:32;1.23;;;0.80;;
50379;SDS011;37474;59.468;18.040;2023-05-20T09:44:07;3.42;;;0.88;;
50379;SDS011;37474;59.468;18.040;2023-05-20T09:46:36;2.13;;;0.85;;
50379;SDS011;37474;59.468;18.040;2023-05-20T09:49:06;2.13;;;0.93;;
50379;SDS011;37474;59.468;18.040;2023-05-20T09:51:35;2.78;;;0.90;;
50379;SDS011;37474;59.468;18.040;2023-05-20T09:54:05;2.85;;;0.88;;
50379;SDS011;37474;59.468;18.040;2023-05-20T09:56:34;4.38;;;1.20;;
50379;SDS011;37474;59.468;18.040;2023-05-20T09:59:04;4.43;;;1.08;;
50379;SDS011;37474;59.468;18.040;2023-05-20T10:01:32;4.68;;;1.08;;
50379;SDS011;37474;59.468;18.040;2023-05-20T10:04:00;3.15;;;1.08;;
50379;SDS011;37474;59.468;18.040;2023-05-20T10:06:37;2.83;;;1.13;;
50379;SDS011;37474;59.468;18.040;2023-05-20T10:09:23;1.88;;;1.10;;
50379;SDS011;37474;59.468;18.040;2023-05-20T10:12:06;2.45;;;1.00;;
50379;SDS011;37474;59.468;18.040;2023-05-20T10:14:48;2.67;;;1.20;;
50379;SDS011;37474;59.468;18.040;2023-05-20T10:17:36;4.05;;;1.10;;
50379;SDS011;37474;59.468;18.040;2023-05-20T10:20:11;3.67;;;1.15;;
50379;SDS011;37474;59.468;18.040;2023-05-20T10:22:40;4.05;;;1.10;;
50379;SDS011;37474;59.468;18.040;2023-05-20T10:25:22;2.30;;;1.10;;
50379;SDS011;37474;59.468;18.040;2023-05-20T10:28:02;1.80;;;0.95;;
50379;SDS011;37474;59.468;18.040;2023-05-20T10:30:33;2.97;;;1.08;;
50379;SDS011;37474;59.468;18.040;2023-05-20T10:33:02;2.28;;;1.02;;
50379;SDS011;37474;59.468;18.040;2023-05-20T10:35:32;2.78;;;1.23;;
50379;SDS011;37474;59.468;18.040;2023-05-20T10:38:07;3.78;;;1.00;;
50379;SDS011;37474;59.468;18.040;2023-05-20T10:40:38;2.60;;;1.30;;
50379;SDS011;37474;59.468;18.040;2023-05-20T10:43:09;2.83;;;1.02;;
50379;SDS011;37474;59.468;18.040;2023-05-20T10:45:48;1.92;;;1.00;;
50379;SDS011;37474;59.468;18.040;2023-05-20T10:48:20;3.65;;;1.15;;
50379;SDS011;37474;59.468;18.040;2023-05-20T10:50:53;3.65;;;1.20;;
50379;SDS011;37474;59.468;18.040;2023-05-20T10:53:23;3.83;;;1.08;;
50379;SDS011;37474;59.468;18.040;2023-05-20T10:56:01;3.10;;;1.00;;
50379;SDS011;37474;59.468;18.040;2023-05-20T10:58:35;2.92;;;1.23;;
50379;SDS011;37474;59.468;18.040;2023-05-20T11:01:04;5.10;;;1.17;;
50379;SDS011;37474;59.468;18.040;2023-05-20T11:03:33;3.83;;;1.40;;
50379;SDS011;37474;59.468;18.040;2023-05-20T11:06:09;1.88;;;0.98;;
50379;SDS011;37474;59.468;18.040;2023-05-20T11:08:40;2.35;;;1.13;;
50379;SDS011;37474;59.468;18.040;2023-05-20T11:11:09;1.48;;;0.90;;
50379;SDS011;37474;59.468;18.040;2023-05-20T11:16:06;3.20;;;1.30;;
50379;SDS011;37474;59.468;18.040;2023-05-20T11:18:34;2.22;;;1.25;;
50379;SDS011;37474;59.468;18.040;2023-05-20T11:21:02;3.63;;;1.20;;
50379;SDS011;37474;59.468;18.040;2023-05-20T11:23:31;2.38;;;1.08;;
50379;SDS011;37474;59.468;18.040;2023-05-20T11:25:59;2.72;;;1.00;;
50379;SDS011;37474;59.468;18.040;2023-05-20T11:28:30;2.67;;;1.08;;
50379;SDS011;37474;59.468;18.040;2023-05-20T11:30:59;2.25;;;1.08;;
50379;SDS011;37474;59.468;18.040;2023-05-20T11:33:28;2.63;;;1.00;;
50379;SDS011;37474;59.468;18.040;2023-05-20T11:35:56;1.52;;;0.90;;
50379;SDS011;37474;59.468;18.040;2023-05-20T11:38:25;1.70;;;1.00;;
50379;SDS011;37474;59.468;18.040;2023-05-20T11:40:53;1.77;;;1.00;;
50379;SDS011;37474;59.468;18.040;2023-05-20T11:43:22;2.05;;;0.93;;
50379;SDS011;37474;59.468;18.040;2023-05-20T11:45:55;1.80;;;1.02;;
50379;SDS011;37474;59.468;18.040;2023-05-20T11:48:25;2.38;;;1.20;;
50379;SDS011;37474;59.468;18.040;2023-05-20T11:50:54;2.95;;;1.02;;
50379;SDS011;37474;59.468;18.040;2023-05-20T11:53:26;1.48;;;1.00;;
50379;SDS011;37474;59.468;18.040;2023-05-20T11:55:55;1.60;;;0.93;;
50379;SDS011;37474;59.468;18.040;2023-05-20T11:58:24;2.10;;;1.20;;
50379;SDS011;37474;59.468;18.040;2023-05-20T12:00:57;2.72;;;1.30;;
50379;SDS011;37474;59.468;18.040;2023-05-20T12:03:46;1.45;;;1.00;;
50379;SDS011;37474;59.468;18.040;2023-05-20T12:06:15;2.17;;;0.95;;
50379;SDS011;37474;59.468;18.040;2023-05-20T12:08:44;3.75;;;1.08;;
50379;SDS011;37474;59.468;18.040;2023-05-20T12:11:12;3.15;;;1.00;;
50379;SDS011;37474;59.468;18.040;2023-05-20T12:13:40;3.35;;;1.02;;
50379;SDS011;37474;59.468;18.040;2023-05-20T12:16:10;1.52;;;0.82;;
50379;SDS011;37474;59.468;18.040;2023-05-20T12:18:38;2.85;;;1.05;;
50379;SDS011;37474;59.468;18.040;2023-05-20T12:21:06;2.70;;;1.10;;
50379;SDS011;37474;59.468;18.040;2023-05-20T12:23:35;3.92;;;1.00;;
50379;SDS011;37474;59.468;18.040;2023-05-20T12:26:03;2.58;;;1.00;;
50379;SDS011;37474;59.468;18.040;2023-05-20T12:28:32;2.65;;;1.10;;
50379;SDS011;37474;59.468;18.040;2023-05-20T12:31:00;2.15;;;1.08;;
50379;SDS011;37474;59.468;18.040;2023-05-20T12:33:29;2.15;;;1.27;;
50379;SDS011;37474;59.468;18.040;2023-05-20T12:35:57;2.25;;;1.10;;
50379;SDS011;37474;59.468;18.040;2023-05-20T12:38:26;2.42;;;1.15;;
50379;SDS011;37474;59.468;18.040;2023-05-20T12:40:54;3.17;;;1.00;;
50379;SDS011;37474;59.468;18.040;2023-05-20T12:43:22;1.85;;;1.00;;
50379;SDS011;37474;59.468;18.040;2023-05-20T12:45:50;1.02;;;0.80;;
50379;SDS011;37474;59.468;18.040;2023-05-20T12:48:18;2.33;;;1.10;;
50379;SDS011;37474;59.468;18.040;2023-05-20T12:50:48;3.63;;;1.10;;
50379;SDS011;37474;59.468;18.040;2023-05-20T12:53:16;2.15;;;1.13;;
50379;SDS011;37474;59.468;18.040;2023-05-20T12:55:44;2.38;;;1.02;;
50379;SDS011;37474;59.468;18.040;2023-05-20T12:58:12;2.80;;;1.10;;
50379;SDS011;37474;59.468;18.040;2023-05-20T13:00:40;2.33;;;1.10;;
50379;SDS011;37474;59.468;18.040;2023-05-20T13:03:08;2.75;;;1.00;;
50379;SDS011;37474;59.468;18.040;2023-05-20T13:05:36;5.72;;;1.08;;
50379;SDS011;37474;59.468;18.040;2023-05-20T13:08:06;2.00;;;1.00;;
50379;SDS011;37474;59.468;18.040;2023-05-20T13:10:36;4.25;;;1.17;;
50379;SDS011;37474;59.468;18.040;2023-05-20T13:13:04;1.98;;;1.10;;
50379;SDS011;37474;59.468;18.040;2023-05-20T13:15:32;2.97;;;1.15;;
50379;SDS011;37474;59.468;18.040;2023-05-20T13:18:01;1.55;;;0.98;;
50379;SDS011;37474;59.468;18.040;2023-05-20T13:20:32;3.65;;;0.80;;
50379;SDS011;37474;59.468;18.040;2023-05-20T13:23:01;4.65;;;0.80;;
50379;SDS011;37474;59.468;18.040;2023-05-20T13:25:30;1.88;;;1.00;;
50379;SDS011;37474;59.468;18.040;2023-05-20T13:27:58;1.98;;;1.08;;
50379;SDS011;37474;59.468;18.040;2023-05-20T13:30:26;1.60;;;1.10;;
50379;SDS011;37474;59.468;18.040;2023-05-20T13:32:55;3.58;;;1.08;;
50379;SDS011;37474;59.468;18.040;2023-05-20T13:35:24;2.70;;;0.85;;
50379;SDS011;37474;59.468;18.040;2023-05-20T13:37:52;1.55;;;0.90;;
50379;SDS011;37474;59.468;18.040;2023-05-20T13:40:20;3.38;;;1.05;;
50379;SDS011;37474;59.468;18.040;2023-05-20T13:42:50;2.65;;;0.80;;
50379;SDS011;37474;59.468;18.040;2023-05-20T13:45:18;3.45;;;0.77;;
50379;SDS011;37474;59.468;18.040;2023-05-20T13:47:47;6.05;;;1.10;;
50379;SDS011;37474;59.468;18.040;2023-05-20T13:50:15;1.25;;;0.85;;
50379;SDS011;37474;59.468;18.040;2023-05-20T13:52:43;3.13;;;1.05;;
50379;SDS011;37474;59.468;18.040;2023-05-20T13:55:12;2.95;;;0.98;;
50379;SDS011;37474;59.468;18.040;2023-05-20T13:57:40;1.92;;;0.95;;
50379;SDS011;37474;59.468;18.040;2023-05-20T14:00:10;1.55;;;1.00;;
50379;SDS011;37474;59.468;18.040;2023-05-20T14:02:39;3.17;;;0.90;;
50379;SDS011;37474;59.468;18.040;2023-05-20T14:05:08;4.63;;;1.23;;
50379;SDS011;37474;59.468;18.040;2023-05-20T14:07:36;2.67;;;1.00;;
50379;SDS011;37474;59.468;18.040;2023-05-20T14:10:05;3.15;;;0.90;;
50379;SDS011;37474;59.468;18.040;2023-05-20T14:12:34;4.97;;;1.00;;
50379;SDS011;37474;59.468;18.040;2023-05-20T14:15:02;2.40;;;0.95;;
50379;SDS011;37474;59.468;18.040;2023-05-20T14:17:32;5.30;;;1.10;;
50379;SDS011;37474;59.468;18.040;2023-05-20T14:20:03;1.83;;;0.90;;
50379;SDS011;37474;59.468;18.040;2023-05-20T14:22:32;2.55;;;1.00;;
50379;SDS011;37474;59.468;18.040;2023-05-20T14:25:00;1.80;;;0.80;;
50379;SDS011;37474;59.468;18.040;2023-05-20T14:27:28;1.55;;;0.90;;
50379;SDS011;37474;59.468;18.040;2023-05-20T14:29:56;1.27;;;0.82;;
50379;SDS011;37474;59.468;18.040;2023-05-20T14:32:24;1.38;;;0.90;;
50379;SDS011;37474;59.468;18.040;2023-05-20T14:34:54;1.70;;;0.90;;
50379;SDS011;37474;59.468;18.040;2023-05-20T14:37:22;3.70;;;1.00;;
50379;SDS011;37474;59.468;18.040;2023-05-20T14:39:51;1.60;;;0.90;;
50379;SDS011;37474;59.468;18.040;2023-05-20T14:42:19;2.38;;;0.82;;
50379;SDS011;37474;59.468;18.040;2023-05-20T14:44:47;3.17;;;1.08;;
50379;SDS011;37474;59.468;18.040;2023-05-20T14:47:16;1.95;;;0.88;;
50379;SDS011;37474;59.468;18.040;2023-05-20T14:49:47;2.88;;;1.00;;
50379;SDS011;37474;59.468;18.040;2023-05-20T14:52:17;2.58;;;1.00;;
50379;SDS011;37474;59.468;18.040;2023-05-20T14:54:45;3.40;;;1.10;;